sensor_id;sensor_type;location;lat;lon;timestamp;P1;durP1;ratioP1;P2;durP2;ratioP2
9970;SDS011;5026;51.494;11.974;2022-07-23T00:00:07;8.88;;;5.65;;
9970;SDS011;5026;51.494;11.974;2022-07-23T00:02:35;9.25;;;5.55;;
9970;SDS011;5026;51.494;11.974;2022-07-23T00:05:02;8.52;;;6.43;;
9970;SDS011;5026;51.494;11.974;2022-07-23T00:07:29;8.85;;;6.30;;
9970;SDS011;5026;51.494;11.974;2022-07-23T00:09:56;8.95;;;6.03;;
9970;SDS011;5026;51.494;11.974;2022-07-23T00:12:23;8.13;;;6.40;;
9970;SDS011;5026;51.494;11.974;2022-07-23T00:14:50;7.22;;;6.35;;
9970;SDS011;5026;51.494;11.974;2022-07-23T00:17:19;6.68;;;5.30;;
9970;SDS011;5026;51.494;11.974;2022-07-23T00:19:46;8.40;;;5.97;;
9970;SDS011;5026;51.494;11.974;2022-07-23T00:22:13;9.20;;;6.32;;
9970;SDS011;5026;51.494;11.974;2022-07-23T00:24:40;9.98;;;5.80;;
9970;SDS011;5026;51.494;11.974;2022-07-23T00:27:07;8.30;;;6.30;;
9970;SDS011;5026;51.494;11.974;2022-07-23T00:29:34;8.18;;;6.47;;
9970;SDS011;5026;51.494;11.974;2022-07-23T00:32:01;7.18;;;6.03;;
9970;SDS011;5026;51.494;11.974;2022-07-23T00:34:29;9.40;;;5.72;;
9970;SDS011;5026;51.494;11.974;2022-07-23T00:36:56;9.98;;;6.18;;
9970;SDS011;5026;51.494;11.974;2022-07-23T00:39:23;9.70;;;6.18;;
9970;SDS011;5026;51.494;11.974;2022-07-23T00:41:50;9.57;;;6.40;;
9970;SDS011;5026;51.494;11.974;2022-07-23T00:44:18;9.00;;;6.10;;
9970;SDS011;5026;51.494;11.974;2022-07-23T00:46:47;7.93;;;6.43;;
9970;SDS011;5026;51.494;11.974;2022-07-23T00:49:17;8.63;;;6.20;;
9970;SDS011;5026;51.494;11.974;2022-07-23T00:51:46;9.65;;;6.32;;
9970;SDS011;5026;51.494;11.974;2022-07-23T00:54:13;9.68;;;6.25;;
9970;SDS011;5026;51.494;11.974;2022-07-23T00:56:41;11.48;;;6.75;;
9970;SDS011;5026;51.494;11.974;2022-07-23T00:59:10;7.50;;;5.70;;
9970;SDS011;5026;51.494;11.974;2022-07-23T01:01:37;10.70;;;5.88;;
9970;SDS011;5026;51.494;11.974;2022-07-23T01:04:04;8.77;;;6.10;;
9970;SDS011;5026;51.494;11.974;2022-07-23T01:06:32;10.35;;;6.50;;
9970;SDS011;5026;51.494;11.974;2022-07-23T01:09:04;8.70;;;5.93;;
9970;SDS011;5026;51.494;11.974;2022-07-23T01:11:32;7.68;;;5.93;;
9970;SDS011;5026;51.494;11.974;2022-07-23T01:14:00;11.13;;;6.85;;
9970;SDS011;5026;51.494;11.974;2022-07-23T01:16:34;8.13;;;6.38;;
9970;SDS011;5026;51.494;11.974;2022-07-23T01:19:01;7.22;;;6.45;;
9970;SDS011;5026;51.494;11.974;2022-07-23T01:21:35;10.00;;;6.47;;
9970;SDS011;5026;51.494;11.974;2022-07-23T01:24:06;6.80;;;6.03;;
9970;SDS011;5026;51.494;11.974;2022-07-23T01:26:34;8.32;;;6.78;;
9970;SDS011;5026;51.494;11.974;2022-07-23T01:29:02;8.27;;;6.15;;
9970;SDS011;5026;51.494;11.974;2022-07-23T01:31:40;9.38;;;6.72;;
9970;SDS011;5026;51.494;11.974;2022-07-23T01:34:07;7.78;;;6.22;;
9970;SDS011;5026;51.494;11.974;2022-07-23T01:36:34;8.50;;;6.60;;
9970;SDS011;5026;51.494;11.974;2022-07-23T01:39:02;9.02;;;5.78;;
9970;SDS011;5026;51.494;11.974;2022-07-23T01:41:32;8.77;;;6.10;;
9970;SDS011;5026;51.494;11.974;2022-07-23T01:43:59;7.85;;;6.55;;
9970;SDS011;5026;51.494;11.974;2022-07-23T01:46:27;9.05;;;6.07;;
9970;SDS011;5026;51.494;11.974;2022-07-23T01:48:54;7.20;;;5.97;;
9970;SDS011;5026;51.494;11.974;2022-07-23T01:51:21;8.00;;;5.95;;
9970;SDS011;5026;51.494;11.974;2022-07-23T01:53:48;12.52;;;6.05;;
9970;SDS011;5026;51.494;11.974;2022-07-23T01:56:16;7.40;;;5.72;;
9970;SDS011;5026;51.494;11.974;2022-07-23T01:58:45;8.50;;;5.85;;
9970;SDS011;5026;51.494;11.974;2022-07-23T02:01:13;7.18;;;5.57;;
9970;SDS011;5026;51.494;11.974;2022-07-23T02:03:39;7.43;;;6.03;;
9970;SDS011;5026;51.494;11.974;2022-07-23T02:06:06;7.85;;;5.55;;
9970;SDS011;5026;51.494;11.974;2022-07-23T02:08:33;6.40;;;5.80;;
9970;SDS011;5026;51.494;11.974;2022-07-23T02:11:00;8.98;;;6.80;;
9970;SDS011;5026;51.494;11.974;2022-07-23T02:13:29;8.88;;;5.88;;
9970;SDS011;5026;51.494;11.974;2022-07-23T02:15:55;7.20;;;5.72;;
9970;SDS011;5026;51.494;11.974;2022-07-23T02:18:22;7.68;;;5.93;;
9970;SDS011;5026;51.494;11.974;2022-07-23T02:20:49;8.05;;;6.13;;
9970;SDS011;5026;51.494;11.974;2022-07-23T02:23:16;9.13;;;7.07;;
9970;SDS011;5026;51.494;11.974;2022-07-23T02:25:43;6.60;;;5.50;;
9970;SDS011;5026;51.494;11.974;2022-07-23T02:28:10;9.20;;;5.93;;
9970;SDS011;5026;51.494;11.974;2022-07-23T02:30:39;10.27;;;5.90;;
9970;SDS011;5026;51.494;11.974;2022-07-23T02:33:07;8.50;;;6.70;;
9970;SDS011;5026;51.494;11.974;2022-07-23T02:35:33;8.85;;;6.18;;
9970;SDS011;5026;51.494;11.974;2022-07-23T02:38:00;9.35;;;6.22;;
9970;SDS011;5026;51.494;11.974;2022-07-23T02:40:27;10.13;;;6.30;;
9970;SDS011;5026;51.494;11.974;2022-07-23T02:42:54;7.93;;;6.38;;
9970;SDS011;5026;51.494;11.974;2022-07-23T02:45:21;10.30;;;6.03;;
9970;SDS011;5026;51.494;11.974;2022-07-23T02:47:50;8.02;;;5.95;;
9970;SDS011;5026;51.494;11.974;2022-07-23T02:50:16;8.40;;;6.38;;
9970;SDS011;5026;51.494;11.974;2022-07-23T02:52:43;6.88;;;5.50;;
9970;SDS011;5026;51.494;11.974;2022-07-23T02:55:10;9.38;;;5.68;;
9970;SDS011;5026;51.494;11.974;2022-07-23T02:57:37;10.23;;;6.07;;
9970;SDS011;5026;51.494;11.974;2022-07-23T03:00:05;7.72;;;5.90;;
9970;SDS011;5026;51.494;11.974;2022-07-23T03:02:33;7.05;;;5.95;;
9970;SDS011;5026;51.494;11.974;2022-07-23T03:05:03;9.40;;;6.20;;
9970;SDS011;5026;51.494;11.974;2022-07-23T03:07:30;8.38;;;6.20;;
9970;SDS011;5026;51.494;11.974;2022-07-23T03:09:57;9.40;;;6.45;;
9970;SDS011;5026;51.494;11.974;2022-07-23T03:12:24;6.60;;;6.00;;
9970;SDS011;5026;51.494;11.974;2022-07-23T03:14:51;6.78;;;5.88;;
9970;SDS011;5026;51.494;11.974;2022-07-23T03:17:18;10.05;;;6.45;;
9970;SDS011;5026;51.494;11.974;2022-07-23T03:19:45;10.90;;;6.65;;
9970;SDS011;5026;51.494;11.974;2022-07-23T03:22:13;9.30;;;6.65;;
9970;SDS011;5026;51.494;11.974;2022-07-23T03:24:40;10.15;;;6.45;;
9970;SDS011;5026;51.494;11.974;2022-07-23T03:27:22;8.07;;;6.25;;
9970;SDS011;5026;51.494;11.974;2022-07-23T03:29:50;8.15;;;5.75;;
9970;SDS011;5026;51.494;11.974;2022-07-23T03:32:18;11.80;;;5.93;;
9970;SDS011;5026;51.494;11.974;2022-07-23T03:34:45;9.68;;;6.22;;
9970;SDS011;5026;51.494;11.974;2022-07-23T03:37:13;8.77;;;5.65;;
9970;SDS011;5026;51.494;11.974;2022-07-23T03:39:41;7.68;;;5.90;;
9970;SDS011;5026;51.494;11.974;2022-07-23T03:42:07;7.63;;;5.43;;
9970;SDS011;5026;51.494;11.974;2022-07-23T03:44:34;15.57;;;6.80;;
9970;SDS011;5026;51.494;11.974;2022-07-23T03:47:03;9.52;;;6.30;;
9970;SDS011;5026;51.494;11.974;2022-07-23T03:49:31;7.00;;;5.63;;
9970;SDS011;5026;51.494;11.974;2022-07-23T03:51:58;9.25;;;6.45;;
9970;SDS011;5026;51.494;11.974;2022-07-23T03:54:26;7.65;;;5.60;;
9970;SDS011;5026;51.494;11.974;2022-07-23T03:56:53;12.50;;;6.38;;
9970;SDS011;5026;51.494;11.974;2022-07-23T03:59:20;8.18;;;6.22;;
9970;SDS011;5026;51.494;11.974;2022-07-23T04:01:52;12.98;;;6.65;;
9970;SDS011;5026;51.494;11.974;2022-07-23T04:04:19;11.32;;;6.72;;
9970;SDS011;5026;51.494;11.974;2022-07-23T04:06:46;9.55;;;6.80;;
9970;SDS011;5026;51.494;11.974;2022-07-23T04:09:13;13.70;;;7.82;;
9970;SDS011;5026;51.494;11.974;2022-07-23T04:11:41;13.75;;;9.93;;
9970;SDS011;5026;51.494;11.974;2022-07-23T04:14:09;17.65;;;12.98;;
9970;SDS011;5026;51.494;11.974;2022-07-23T04:16:35;27.75;;;14.75;;
9970;SDS011;5026;51.494;11.974;2022-07-23T04:19:02;19.85;;;15.75;;
9970;SDS011;5026;51.494;11.974;2022-07-23T04:21:29;28.63;;;16.33;;
9970;SDS011;5026;51.494;11.974;2022-07-23T04:23:56;23.55;;;15.57;;
9970;SDS011;5026;51.494;11.974;2022-07-23T04:26:23;23.90;;;15.05;;
9970;SDS011;5026;51.494;11.974;2022-07-23T04:28:51;26.33;;;15.82;;
9970;SDS011;5026;51.494;11.974;2022-07-23T04:31:18;28.15;;;16.85;;
9970;SDS011;5026;51.494;11.974;2022-07-23T04:33:45;34.30;;;18.40;;
9970;SDS011;5026;51.494;11.974;2022-07-23T04:36:12;32.03;;;18.42;;
9970;SDS011;5026;51.494;11.974;2022-07-23T04:38:39;26.13;;;16.77;;
9970;SDS011;5026;51.494;11.974;2022-07-23T04:41:06;25.80;;;16.63;;
9970;SDS011;5026;51.494;11.974;2022-07-23T04:43:33;23.40;;;15.55;;
9970;SDS011;5026;51.494;11.974;2022-07-23T04:46:01;23.27;;;15.80;;
9970;SDS011;5026;51.494;11.974;2022-07-23T04:48:28;21.25;;;14.57;;
9970;SDS011;5026;51.494;11.974;2022-07-23T04:50:55;21.23;;;15.40;;
9970;SDS011;5026;51.494;11.974;2022-07-23T04:53:22;24.98;;;15.98;;
9970;SDS011;5026;51.494;11.974;2022-07-23T04:55:49;23.90;;;15.25;;
9970;SDS011;5026;51.494;11.974;2022-07-23T04:58:17;23.00;;;15.02;;
9970;SDS011;5026;51.494;11.974;2022-07-23T05:00:43;25.90;;;15.38;;
9970;SDS011;5026;51.494;11.974;2022-07-23T05:03:12;25.63;;;15.93;;
9970;SDS011;5026;51.494;11.974;2022-07-23T05:05:39;22.38;;;14.20;;
9970;SDS011;5026;51.494;11.974;2022-07-23T05:08:06;19.67;;;13.68;;
9970;SDS011;5026;51.494;11.974;2022-07-23T05:10:33;18.00;;;13.10;;
9970;SDS011;5026;51.494;11.974;2022-07-23T05:13:00;17.77;;;13.10;;
9970;SDS011;5026;51.494;11.974;2022-07-23T05:15:26;16.42;;;12.52;;
9970;SDS011;5026;51.494;11.974;2022-07-23T05:17:53;19.73;;;13.02;;
9970;SDS011;5026;51.494;11.974;2022-07-23T05:20:22;15.93;;;11.98;;
9970;SDS011;5026;51.494;11.974;2022-07-23T05:22:49;22.38;;;13.05;;
9970;SDS011;5026;51.494;11.974;2022-07-23T05:25:15;14.60;;;11.85;;
9970;SDS011;5026;51.494;11.974;2022-07-23T05:27:42;19.67;;;12.05;;
9970;SDS011;5026;51.494;11.974;2022-07-23T05:30:10;17.83;;;12.00;;
9970;SDS011;5026;51.494;11.974;2022-07-23T05:32:37;18.50;;;11.68;;
9970;SDS011;5026;51.494;11.974;2022-07-23T05:35:05;19.20;;;12.60;;
9970;SDS011;5026;51.494;11.974;2022-07-23T05:37:34;17.83;;;12.60;;
9970;SDS011;5026;51.494;11.974;2022-07-23T05:40:02;19.27;;;12.80;;
9970;SDS011;5026;51.494;11.974;2022-07-23T05:42:31;19.65;;;13.05;;
9970;SDS011;5026;51.494;11.974;2022-07-23T05:44:58;20.92;;;13.13;;
9970;SDS011;5026;51.494;11.974;2022-07-23T05:47:25;17.95;;;13.18;;
9970;SDS011;5026;51.494;11.974;2022-07-23T05:49:52;20.38;;;11.93;;
9970;SDS011;5026;51.494;11.974;2022-07-23T05:52:19;18.02;;;12.07;;
9970;SDS011;5026;51.494;11.974;2022-07-23T05:54:47;17.83;;;11.75;;
9970;SDS011;5026;51.494;11.974;2022-07-23T05:57:14;19.80;;;12.82;;
9970;SDS011;5026;51.494;11.974;2022-07-23T05:59:41;20.10;;;13.73;;
9970;SDS011;5026;51.494;11.974;2022-07-23T06:02:08;19.35;;;13.38;;
9970;SDS011;5026;51.494;11.974;2022-07-23T06:04:35;17.95;;;12.48;;
9970;SDS011;5026;51.494;11.974;2022-07-23T06:07:02;17.30;;;11.95;;
9970;SDS011;5026;51.494;11.974;2022-07-23T06:09:29;14.90;;;11.80;;
9970;SDS011;5026;51.494;11.974;2022-07-23T06:11:57;16.67;;;12.40;;
9970;SDS011;5026;51.494;11.974;2022-07-23T06:14:24;20.35;;;14.10;;
9970;SDS011;5026;51.494;11.974;2022-07-23T06:16:51;16.55;;;13.05;;
9970;SDS011;5026;51.494;11.974;2022-07-23T06:19:18;15.63;;;12.30;;
9970;SDS011;5026;51.494;11.974;2022-07-23T06:21:44;21.00;;;13.40;;
9970;SDS011;5026;51.494;11.974;2022-07-23T06:24:11;21.40;;;13.90;;
9970;SDS011;5026;51.494;11.974;2022-07-23T06:26:38;18.73;;;13.40;;
9970;SDS011;5026;51.494;11.974;2022-07-23T06:29:07;19.10;;;13.25;;
9970;SDS011;5026;51.494;11.974;2022-07-23T06:31:34;20.15;;;14.10;;
9970;SDS011;5026;51.494;11.974;2022-07-23T06:34:00;19.67;;;13.02;;
9970;SDS011;5026;51.494;11.974;2022-07-23T06:36:28;18.20;;;12.20;;
9970;SDS011;5026;51.494;11.974;2022-07-23T06:38:55;20.05;;;12.35;;
9970;SDS011;5026;51.494;11.974;2022-07-23T06:41:22;18.52;;;12.30;;
9970;SDS011;5026;51.494;11.974;2022-07-23T06:43:49;16.83;;;12.07;;
9970;SDS011;5026;51.494;11.974;2022-07-23T06:46:17;12.70;;;10.30;;
9970;SDS011;5026;51.494;11.974;2022-07-23T06:48:46;15.20;;;10.50;;
9970;SDS011;5026;51.494;11.974;2022-07-23T06:51:13;18.65;;;11.93;;
9970;SDS011;5026;51.494;11.974;2022-07-23T06:53:40;14.50;;;11.88;;
9970;SDS011;5026;51.494;11.974;2022-07-23T06:56:07;14.18;;;10.43;;
9970;SDS011;5026;51.494;11.974;2022-07-23T06:58:34;13.82;;;10.02;;
9970;SDS011;5026;51.494;11.974;2022-07-23T07:01:01;13.18;;;9.88;;
9970;SDS011;5026;51.494;11.974;2022-07-23T07:03:29;15.40;;;10.40;;
9970;SDS011;5026;51.494;11.974;2022-07-23T07:05:56;12.43;;;9.27;;
9970;SDS011;5026;51.494;11.974;2022-07-23T07:08:23;12.20;;;9.57;;
9970;SDS011;5026;51.494;11.974;2022-07-23T07:10:55;12.13;;;9.85;;
9970;SDS011;5026;51.494;11.974;2022-07-23T07:13:22;11.10;;;9.50;;
9970;SDS011;5026;51.494;11.974;2022-07-23T07:15:49;14.00;;;10.23;;
9970;SDS011;5026;51.494;11.974;2022-07-23T07:18:16;13.85;;;10.40;;
9970;SDS011;5026;51.494;11.974;2022-07-23T07:20:44;14.57;;;10.98;;
9970;SDS011;5026;51.494;11.974;2022-07-23T07:23:12;13.10;;;10.30;;
9970;SDS011;5026;51.494;11.974;2022-07-23T07:25:39;15.20;;;11.25;;
9970;SDS011;5026;51.494;11.974;2022-07-23T07:28:06;16.60;;;10.68;;
9970;SDS011;5026;51.494;11.974;2022-07-23T07:30:33;12.55;;;10.93;;
9970;SDS011;5026;51.494;11.974;2022-07-23T07:33:00;13.30;;;10.90;;
9970;SDS011;5026;51.494;11.974;2022-07-23T07:35:27;12.45;;;10.68;;
9970;SDS011;5026;51.494;11.974;2022-07-23T07:37:55;15.43;;;11.02;;
9970;SDS011;5026;51.494;11.974;2022-07-23T07:40:22;12.02;;;9.55;;
9970;SDS011;5026;51.494;11.974;2022-07-23T07:42:50;13.63;;;10.68;;
9970;SDS011;5026;51.494;11.974;2022-07-23T07:45:19;12.25;;;9.80;;
9970;SDS011;5026;51.494;11.974;2022-07-23T07:47:48;12.57;;;9.68;;
9970;SDS011;5026;51.494;11.974;2022-07-23T07:50:15;12.77;;;10.30;;
9970;SDS011;5026;51.494;11.974;2022-07-23T07:52:42;13.98;;;10.23;;
9970;SDS011;5026;51.494;11.974;2022-07-23T07:55:11;13.15;;;10.20;;
9970;SDS011;5026;51.494;11.974;2022-07-23T07:57:38;15.43;;;10.50;;
9970;SDS011;5026;51.494;11.974;2022-07-23T08:00:07;12.05;;;10.50;;
9970;SDS011;5026;51.494;11.974;2022-07-23T08:02:42;14.35;;;10.80;;
9970;SDS011;5026;51.494;11.974;2022-07-23T08:05:10;12.68;;;10.82;;
9970;SDS011;5026;51.494;11.974;2022-07-23T08:07:37;13.00;;;11.27;;
9970;SDS011;5026;51.494;11.974;2022-07-23T08:10:05;14.63;;;11.20;;
9970;SDS011;5026;51.494;11.974;2022-07-23T08:12:39;14.43;;;11.73;;
9970;SDS011;5026;51.494;11.974;2022-07-23T08:15:08;16.83;;;11.98;;
9970;SDS011;5026;51.494;11.974;2022-07-23T08:17:35;14.32;;;10.85;;
9970;SDS011;5026;51.494;11.974;2022-07-23T08:20:03;17.23;;;10.63;;
9970;SDS011;5026;51.494;11.974;2022-07-23T08:22:44;14.93;;;11.07;;
9970;SDS011;5026;51.494;11.974;2022-07-23T08:25:12;13.63;;;10.85;;
9970;SDS011;5026;51.494;11.974;2022-07-23T08:27:40;14.60;;;11.55;;
9970;SDS011;5026;51.494;11.974;2022-07-23T08:30:08;12.10;;;10.73;;
9970;SDS011;5026;51.494;11.974;2022-07-23T08:32:48;13.73;;;11.02;;
9970;SDS011;5026;51.494;11.974;2022-07-23T08:35:16;12.57;;;10.35;;
9970;SDS011;5026;51.494;11.974;2022-07-23T08:37:43;14.48;;;10.52;;
9970;SDS011;5026;51.494;11.974;2022-07-23T08:40:10;12.20;;;10.43;;
9970;SDS011;5026;51.494;11.974;2022-07-23T08:42:38;13.82;;;10.07;;
9970;SDS011;5026;51.494;11.974;2022-07-23T08:45:07;11.93;;;9.85;;
9970;SDS011;5026;51.494;11.974;2022-07-23T08:47:36;12.45;;;10.10;;
9970;SDS011;5026;51.494;11.974;2022-07-23T08:50:04;13.60;;;9.80;;
9970;SDS011;5026;51.494;11.974;2022-07-23T08:52:33;11.60;;;9.23;;
9970;SDS011;5026;51.494;11.974;2022-07-23T08:55:02;11.40;;;10.20;;
9970;SDS011;5026;51.494;11.974;2022-07-23T08:57:29;13.63;;;9.77;;
9970;SDS011;5026;51.494;11.974;2022-07-23T08:59:58;14.38;;;10.15;;
9970;SDS011;5026;51.494;11.974;2022-07-23T09:02:25;14.75;;;10.40;;
9970;SDS011;5026;51.494;11.974;2022-07-23T09:04:52;12.73;;;9.70;;
9970;SDS011;5026;51.494;11.974;2022-07-23T09:07:18;11.25;;;9.70;;
9970;SDS011;5026;51.494;11.974;2022-07-23T09:09:45;12.60;;;9.57;;
9970;SDS011;5026;51.494;11.974;2022-07-23T09:12:12;12.18;;;10.07;;
9970;SDS011;5026;51.494;11.974;2022-07-23T09:14:40;12.27;;;9.60;;
9970;SDS011;5026;51.494;11.974;2022-07-23T09:17:11;11.82;;;9.63;;
9970;SDS011;5026;51.494;11.974;2022-07-23T09:19:39;14.25;;;10.05;;
9970;SDS011;5026;51.494;11.974;2022-07-23T09:22:22;13.32;;;11.30;;
9970;SDS011;5026;51.494;11.974;2022-07-23T09:25:05;15.57;;;12.40;;
9970;SDS011;5026;51.494;11.974;2022-07-23T09:27:48;14.30;;;12.07;;
9970;SDS011;5026;51.494;11.974;2022-07-23T09:30:18;18.65;;;14.65;;
9970;SDS011;5026;51.494;11.974;2022-07-23T09:32:50;17.08;;;13.90;;
9970;SDS011;5026;51.494;11.974;2022-07-23T09:35:42;18.33;;;14.50;;
9970;SDS011;5026;51.494;11.974;2022-07-23T09:38:11;17.70;;;14.43;;
9970;SDS011;5026;51.494;11.974;2022-07-23T09:40:37;20.48;;;16.05;;
9970;SDS011;5026;51.494;11.974;2022-07-23T09:43:04;20.35;;;17.02;;
9970;SDS011;5026;51.494;11.974;2022-07-23T09:45:31;20.98;;;16.55;;
9970;SDS011;5026;51.494;11.974;2022-07-23T09:48:10;21.42;;;18.40;;
9970;SDS011;5026;51.494;11.974;2022-07-23T09:50:38;24.52;;;18.80;;
9970;SDS011;5026;51.494;11.974;2022-07-23T09:53:06;20.77;;;17.70;;
9970;SDS011;5026;51.494;11.974;2022-07-23T09:55:33;21.02;;;17.70;;
9970;SDS011;5026;51.494;11.974;2022-07-23T09:58:03;24.63;;;17.92;;
9970;SDS011;5026;51.494;11.974;2022-07-23T10:00:31;18.00;;;15.30;;
9970;SDS011;5026;51.494;11.974;2022-07-23T10:02:59;16.33;;;14.45;;
9970;SDS011;5026;51.494;11.974;2022-07-23T10:05:29;16.35;;;14.15;;
9970;SDS011;5026;51.494;11.974;2022-07-23T10:07:57;15.98;;;12.75;;
9970;SDS011;5026;51.494;11.974;2022-07-23T10:10:26;14.25;;;12.00;;
9970;SDS011;5026;51.494;11.974;2022-07-23T10:12:54;15.60;;;11.38;;
9970;SDS011;5026;51.494;11.974;2022-07-23T10:15:40;16.20;;;11.73;;
9970;SDS011;5026;51.494;11.974;2022-07-23T10:18:08;15.93;;;11.27;;
9970;SDS011;5026;51.494;11.974;2022-07-23T10:20:38;14.93;;;11.77;;
9970;SDS011;5026;51.494;11.974;2022-07-23T10:23:08;14.70;;;11.25;;
9970;SDS011;5026;51.494;11.974;2022-07-23T10:25:41;13.73;;;11.25;;
9970;SDS011;5026;51.494;11.974;2022-07-23T10:31:09;13.98;;;11.05;;
9970;SDS011;5026;51.494;11.974;2022-07-23T10:33:50;13.73;;;10.88;;
9970;SDS011;5026;51.494;11.974;2022-07-23T10:36:27;12.85;;;11.23;;
9970;SDS011;5026;51.494;11.974;2022-07-23T10:39:02;13.40;;;11.32;;
9970;SDS011;5026;51.494;11.974;2022-07-23T10:41:32;20.63;;;11.82;;
9970;SDS011;5026;51.494;11.974;2022-07-23T10:44:05;16.08;;;12.80;;
9970;SDS011;5026;51.494;11.974;2022-07-23T10:46:33;14.93;;;12.35;;
9970;SDS011;5026;51.494;11.974;2022-07-23T10:52:16;14.60;;;11.85;;
9970;SDS011;5026;51.494;11.974;2022-07-23T10:54:53;13.55;;;10.77;;
9970;SDS011;5026;51.494;11.974;2022-07-23T10:57:22;16.70;;;12.02;;
9970;SDS011;5026;51.494;11.974;2022-07-23T11:00:11;16.27;;;13.52;;
9970;SDS011;5026;51.494;11.974;2022-07-23T11:02:43;15.68;;;12.32;;
9970;SDS011;5026;51.494;11.974;2022-07-23T11:05:12;17.95;;;11.27;;
9970;SDS011;5026;51.494;11.974;2022-07-23T11:10:42;15.98;;;13.13;;
9970;SDS011;5026;51.494;11.974;2022-07-23T11:13:27;19.45;;;14.88;;
9970;SDS011;5026;51.494;11.974;2022-07-23T11:16:03;20.33;;;15.73;;
9970;SDS011;5026;51.494;11.974;2022-07-23T11:21:42;21.55;;;16.92;;
9970;SDS011;5026;51.494;11.974;2022-07-23T11:24:16;20.95;;;14.30;;
9970;SDS011;5026;51.494;11.974;2022-07-23T11:26:45;18.80;;;14.50;;
9970;SDS011;5026;51.494;11.974;2022-07-23T11:32:28;17.92;;;14.40;;
9970;SDS011;5026;51.494;11.974;2022-07-23T11:35:03;16.65;;;12.02;;
9970;SDS011;5026;51.494;11.974;2022-07-23T11:37:45;15.38;;;11.23;;
9970;SDS011;5026;51.494;11.974;2022-07-23T11:40:16;15.63;;;12.07;;
9970;SDS011;5026;51.494;11.974;2022-07-23T11:42:51;12.75;;;10.82;;
9970;SDS011;5026;51.494;11.974;2022-07-23T11:45:23;14.48;;;10.43;;
9970;SDS011;5026;51.494;11.974;2022-07-23T11:47:51;16.63;;;11.80;;
9970;SDS011;5026;51.494;11.974;2022-07-23T11:50:18;13.60;;;11.80;;
9970;SDS011;5026;51.494;11.974;2022-07-23T11:52:45;13.57;;;10.55;;
9970;SDS011;5026;51.494;11.974;2022-07-23T11:55:12;12.15;;;10.63;;
9970;SDS011;5026;51.494;11.974;2022-07-23T11:57:42;15.02;;;11.90;;
9970;SDS011;5026;51.494;11.974;2022-07-23T12:00:10;13.43;;;11.65;;
9970;SDS011;5026;51.494;11.974;2022-07-23T12:02:39;16.42;;;11.63;;
9970;SDS011;5026;51.494;11.974;2022-07-23T12:05:07;16.23;;;11.63;;
9970;SDS011;5026;51.494;11.974;2022-07-23T12:07:38;13.23;;;11.70;;
9970;SDS011;5026;51.494;11.974;2022-07-23T12:10:12;12.15;;;10.10;;
9970;SDS011;5026;51.494;11.974;2022-07-23T12:12:41;14.57;;;11.43;;
9970;SDS011;5026;51.494;11.974;2022-07-23T12:15:11;13.75;;;11.40;;
9970;SDS011;5026;51.494;11.974;2022-07-23T12:17:39;15.38;;;12.02;;
9970;SDS011;5026;51.494;11.974;2022-07-23T12:20:08;15.02;;;11.20;;
9970;SDS011;5026;51.494;11.974;2022-07-23T12:22:38;13.68;;;12.27;;
9970;SDS011;5026;51.494;11.974;2022-07-23T12:25:09;13.13;;;11.73;;
9970;SDS011;5026;51.494;11.974;2022-07-23T12:27:37;16.73;;;12.40;;
9970;SDS011;5026;51.494;11.974;2022-07-23T12:30:34;16.17;;;12.52;;
9970;SDS011;5026;51.494;11.974;2022-07-23T12:33:06;16.33;;;11.90;;
9970;SDS011;5026;51.494;11.974;2022-07-23T12:35:36;17.83;;;11.43;;
9970;SDS011;5026;51.494;11.974;2022-07-23T12:38:06;12.68;;;10.95;;
9970;SDS011;5026;51.494;11.974;2022-07-23T12:40:35;16.40;;;11.85;;
9970;SDS011;5026;51.494;11.974;2022-07-23T12:43:04;13.27;;;11.93;;
9970;SDS011;5026;51.494;11.974;2022-07-23T12:45:44;15.20;;;12.45;;
9970;SDS011;5026;51.494;11.974;2022-07-23T12:48:16;14.27;;;11.35;;
9970;SDS011;5026;51.494;11.974;2022-07-23T12:50:48;14.25;;;11.50;;
9970;SDS011;5026;51.494;11.974;2022-07-23T12:53:21;15.57;;;12.20;;
9970;SDS011;5026;51.494;11.974;2022-07-23T12:55:49;13.63;;;11.35;;
9970;SDS011;5026;51.494;11.974;2022-07-23T12:58:22;13.18;;;11.15;;
9970;SDS011;5026;51.494;11.974;2022-07-23T13:01:01;12.27;;;10.95;;
9970;SDS011;5026;51.494;11.974;2022-07-23T13:03:32;15.75;;;10.93;;
9970;SDS011;5026;51.494;11.974;2022-07-23T13:06:01;14.13;;;11.15;;
9970;SDS011;5026;51.494;11.974;2022-07-23T13:08:30;13.27;;;11.15;;
9970;SDS011;5026;51.494;11.974;2022-07-23T13:10:59;12.93;;;11.63;;
9970;SDS011;5026;51.494;11.974;2022-07-23T13:13:26;12.90;;;10.73;;
9970;SDS011;5026;51.494;11.974;2022-07-23T13:15:55;14.93;;;11.75;;
9970;SDS011;5026;51.494;11.974;2022-07-23T13:18:24;14.80;;;12.63;;
9970;SDS011;5026;51.494;11.974;2022-07-23T13:20:52;15.18;;;11.73;;
9970;SDS011;5026;51.494;11.974;2022-07-23T13:23:19;14.13;;;12.02;;
9970;SDS011;5026;51.494;11.974;2022-07-23T13:25:47;13.02;;;10.98;;
9970;SDS011;5026;51.494;11.974;2022-07-23T13:28:15;12.23;;;10.93;;
9970;SDS011;5026;51.494;11.974;2022-07-23T13:30:43;13.07;;;11.75;;
9970;SDS011;5026;51.494;11.974;2022-07-23T13:33:12;15.70;;;11.48;;
9970;SDS011;5026;51.494;11.974;2022-07-23T13:35:41;14.60;;;12.15;;
9970;SDS011;5026;51.494;11.974;2022-07-23T13:38:08;13.50;;;11.98;;
9970;SDS011;5026;51.494;11.974;2022-07-23T13:40:35;13.27;;;11.77;;
9970;SDS011;5026;51.494;11.974;2022-07-23T13:43:04;14.02;;;12.15;;
9970;SDS011;5026;51.494;11.974;2022-07-23T13:45:33;15.38;;;12.38;;
9970;SDS011;5026;51.494;11.974;2022-07-23T13:48:00;12.80;;;11.50;;
9970;SDS011;5026;51.494;11.974;2022-07-23T13:50:28;12.80;;;11.50;;
9970;SDS011;5026;51.494;11.974;2022-07-23T13:52:56;13.13;;;11.10;;
9970;SDS011;5026;51.494;11.974;2022-07-23T13:55:23;13.00;;;11.60;;
9970;SDS011;5026;51.494;11.974;2022-07-23T13:57:50;13.77;;;12.38;;
9970;SDS011;5026;51.494;11.974;2022-07-23T14:00:17;14.20;;;12.20;;
9970;SDS011;5026;51.494;11.974;2022-07-23T14:02:44;13.50;;;12.15;;
9970;SDS011;5026;51.494;11.974;2022-07-23T14:05:11;12.13;;;10.95;;
9970;SDS011;5026;51.494;11.974;2022-07-23T14:07:39;12.80;;;11.50;;
9970;SDS011;5026;51.494;11.974;2022-07-23T14:10:09;14.40;;;11.73;;
9970;SDS011;5026;51.494;11.974;2022-07-23T14:12:37;11.90;;;10.70;;
9970;SDS011;5026;51.494;11.974;2022-07-23T14:15:04;15.75;;;11.20;;
9970;SDS011;5026;51.494;11.974;2022-07-23T14:17:33;13.27;;;11.48;;
9970;SDS011;5026;51.494;11.974;2022-07-23T14:20:00;12.60;;;11.05;;
9970;SDS011;5026;51.494;11.974;2022-07-23T14:22:28;13.70;;;10.68;;
9970;SDS011;5026;51.494;11.974;2022-07-23T14:24:54;12.63;;;11.02;;
9970;SDS011;5026;51.494;11.974;2022-07-23T14:27:24;11.88;;;10.15;;
9970;SDS011;5026;51.494;11.974;2022-07-23T14:29:52;11.05;;;9.90;;
9970;SDS011;5026;51.494;11.974;2022-07-23T14:32:19;11.00;;;9.90;;
9970;SDS011;5026;51.494;11.974;2022-07-23T14:34:46;10.95;;;9.82;;
9970;SDS011;5026;51.494;11.974;2022-07-23T14:37:13;10.90;;;9.25;;
9970;SDS011;5026;51.494;11.974;2022-07-23T14:39:41;11.88;;;9.55;;
9970;SDS011;5026;51.494;11.974;2022-07-23T14:42:08;10.68;;;9.57;;
9970;SDS011;5026;51.494;11.974;2022-07-23T14:44:37;10.00;;;9.00;;
9970;SDS011;5026;51.494;11.974;2022-07-23T14:47:04;10.82;;;9.38;;
9970;SDS011;5026;51.494;11.974;2022-07-23T14:49:31;9.80;;;8.80;;
9970;SDS011;5026;51.494;11.974;2022-07-23T14:51:59;9.60;;;8.65;;
9970;SDS011;5026;51.494;11.974;2022-07-23T14:54:27;14.73;;;9.43;;
9970;SDS011;5026;51.494;11.974;2022-07-23T14:56:55;10.68;;;9.68;;
9970;SDS011;5026;51.494;11.974;2022-07-23T14:59:22;10.32;;;9.23;;
9970;SDS011;5026;51.494;11.974;2022-07-23T15:01:51;10.55;;;9.45;;
9970;SDS011;5026;51.494;11.974;2022-07-23T15:04:18;14.13;;;10.40;;
9970;SDS011;5026;51.494;11.974;2022-07-23T15:06:45;9.63;;;8.60;;